sensor_id;sensor_type;location;lat;lon;timestamp;P1;durP1;ratioP1;P2;durP2;ratioP2
51560;SDS011;37654;51.262;17.058;2023-04-24T00:02:22;19.00;;;10.93;;
51560;SDS011;37654;51.262;17.058;2023-04-24T00:04:48;19.70;;;11.88;;
51560;SDS011;37654;51.262;17.058;2023-04-24T00:07:14;17.77;;;11.57;;
51560;SDS011;37654;51.262;17.058;2023-04-24T00:09:41;15.98;;;10.40;;
51560;SDS011;37654;51.262;17.058;2023-04-24T00:12:07;24.23;;;12.32;;
51560;SDS011;37654;51.262;17.058;2023-04-24T00:14:33;22.85;;;12.80;;
51560;SDS011;37654;51.262;17.058;2023-04-24T00:17:00;17.73;;;11.73;;
51560;SDS011;37654;51.262;17.058;2023-04-24T00:19:27;20.25;;;11.73;;
51560;SDS011;37654;51.262;17.058;2023-04-24T00:21:53;19.83;;;12.82;;
51560;SDS011;37654;51.262;17.058;2023-04-24T00:24:19;18.73;;;12.05;;
51560;SDS011;37654;51.262;17.058;2023-04-24T00:26:45;22.00;;;13.48;;
51560;SDS011;37654;51.262;17.058;2023-04-24T00:29:11;19.50;;;12.13;;
51560;SDS011;37654;51.262;17.058;2023-04-24T00:31:36;19.05;;;11.20;;
51560;SDS011;37654;51.262;17.058;2023-04-24T00:34:02;16.52;;;10.90;;
51560;SDS011;37654;51.262;17.058;2023-04-24T00:36:28;16.05;;;10.88;;
51560;SDS011;37654;51.262;17.058;2023-04-24T00:38:55;15.88;;;9.82;;
51560;SDS011;37654;51.262;17.058;2023-04-24T00:41:21;22.65;;;10.48;;
51560;SDS011;37654;51.262;17.058;2023-04-24T00:43:47;16.52;;;9.75;;
51560;SDS011;37654;51.262;17.058;2023-04-24T00:46:13;20.80;;;10.13;;
51560;SDS011;37654;51.262;17.058;2023-04-24T00:48:39;16.73;;;9.88;;
51560;SDS011;37654;51.262;17.058;2023-04-24T00:51:05;18.55;;;10.05;;
51560;SDS011;37654;51.262;17.058;2023-04-24T00:53:30;24.00;;;10.93;;
51560;SDS011;37654;51.262;17.058;2023-04-24T00:55:56;20.02;;;11.50;;
51560;SDS011;37654;51.262;17.058;2023-04-24T00:58:22;19.27;;;10.60;;
51560;SDS011;37654;51.262;17.058;2023-04-24T01:00:48;21.50;;;11.30;;
51560;SDS011;37654;51.262;17.058;2023-04-24T01:03:18;22.27;;;11.50;;
51560;SDS011;37654;51.262;17.058;2023-04-24T01:05:45;19.38;;;10.82;;
51560;SDS011;37654;51.262;17.058;2023-04-24T01:08:10;18.73;;;12.68;;
51560;SDS011;37654;51.262;17.058;2023-04-24T01:10:36;22.83;;;12.80;;
51560;SDS011;37654;51.262;17.058;2023-04-24T01:13:03;19.10;;;11.75;;
51560;SDS011;37654;51.262;17.058;2023-04-24T01:15:30;21.95;;;12.55;;
51560;SDS011;37654;51.262;17.058;2023-04-24T01:17:55;23.70;;;13.98;;
51560;SDS011;37654;51.262;17.058;2023-04-24T01:20:21;23.70;;;11.77;;
51560;SDS011;37654;51.262;17.058;2023-04-24T01:22:48;21.88;;;12.45;;
51560;SDS011;37654;51.262;17.058;2023-04-24T01:25:13;18.52;;;12.45;;
51560;SDS011;37654;51.262;17.058;2023-04-24T01:27:39;22.95;;;13.02;;
51560;SDS011;37654;51.262;17.058;2023-04-24T01:30:05;20.13;;;12.85;;
51560;SDS011;37654;51.262;17.058;2023-04-24T01:32:31;22.90;;;13.05;;
51560;SDS011;37654;51.262;17.058;2023-04-24T01:34:57;20.45;;;14.45;;
51560;SDS011;37654;51.262;17.058;2023-04-24T01:37:23;26.10;;;15.20;;
51560;SDS011;37654;51.262;17.058;2023-04-24T01:39:48;23.38;;;13.35;;
51560;SDS011;37654;51.262;17.058;2023-04-24T01:42:14;23.13;;;14.43;;
51560;SDS011;37654;51.262;17.058;2023-04-24T01:44:40;22.70;;;13.65;;
51560;SDS011;37654;51.262;17.058;2023-04-24T01:47:06;22.45;;;13.15;;
51560;SDS011;37654;51.262;17.058;2023-04-24T01:49:32;22.38;;;13.95;;
51560;SDS011;37654;51.262;17.058;2023-04-24T01:51:58;25.35;;;13.48;;
51560;SDS011;37654;51.262;17.058;2023-04-24T01:54:23;23.08;;;14.65;;
51560;SDS011;37654;51.262;17.058;2023-04-24T01:56:48;21.67;;;13.65;;
51560;SDS011;37654;51.262;17.058;2023-04-24T01:59:14;23.05;;;14.20;;
51560;SDS011;37654;51.262;17.058;2023-04-24T02:01:42;23.23;;;14.23;;
51560;SDS011;37654;51.262;17.058;2023-04-24T02:04:07;21.88;;;14.10;;
51560;SDS011;37654;51.262;17.058;2023-04-24T02:06:33;25.13;;;14.48;;
51560;SDS011;37654;51.262;17.058;2023-04-24T02:08:58;27.13;;;14.80;;
51560;SDS011;37654;51.262;17.058;2023-04-24T02:11:24;20.65;;;13.40;;
51560;SDS011;37654;51.262;17.058;2023-04-24T02:13:50;26.15;;;13.13;;
51560;SDS011;37654;51.262;17.058;2023-04-24T02:16:16;23.52;;;15.05;;
51560;SDS011;37654;51.262;17.058;2023-04-24T02:18:42;25.98;;;14.30;;
51560;SDS011;37654;51.262;17.058;2023-04-24T02:21:08;25.30;;;15.77;;
51560;SDS011;37654;51.262;17.058;2023-04-24T02:23:33;22.85;;;15.25;;
51560;SDS011;37654;51.262;17.058;2023-04-24T02:25:58;24.17;;;14.68;;
51560;SDS011;37654;51.262;17.058;2023-04-24T02:28:24;31.27;;;14.70;;
51560;SDS011;37654;51.262;17.058;2023-04-24T02:30:49;25.35;;;17.08;;
51560;SDS011;37654;51.262;17.058;2023-04-24T02:33:16;26.35;;;15.93;;
51560;SDS011;37654;51.262;17.058;2023-04-24T02:35:41;21.95;;;14.80;;
51560;SDS011;37654;51.262;17.058;2023-04-24T02:38:07;30.35;;;15.98;;
51560;SDS011;37654;51.262;17.058;2023-04-24T02:40:32;21.10;;;14.52;;
51560;SDS011;37654;51.262;17.058;2023-04-24T02:42:57;22.48;;;14.77;;
51560;SDS011;37654;51.262;17.058;2023-04-24T02:45:23;24.23;;;14.52;;
51560;SDS011;37654;51.262;17.058;2023-04-24T02:47:48;22.95;;;15.02;;
51560;SDS011;37654;51.262;17.058;2023-04-24T02:50:14;25.85;;;14.52;;
51560;SDS011;37654;51.262;17.058;2023-04-24T02:52:39;24.48;;;15.02;;
51560;SDS011;37654;51.262;17.058;2023-04-24T02:55:05;23.55;;;14.40;;
51560;SDS011;37654;51.262;17.058;2023-04-24T02:57:31;24.23;;;15.20;;
51560;SDS011;37654;51.262;17.058;2023-04-24T02:59:56;27.30;;;15.00;;
51560;SDS011;37654;51.262;17.058;2023-04-24T03:02:21;23.90;;;16.85;;
51560;SDS011;37654;51.262;17.058;2023-04-24T03:04:47;31.20;;;17.02;;
51560;SDS011;37654;51.262;17.058;2023-04-24T03:07:15;22.35;;;14.10;;
51560;SDS011;37654;51.262;17.058;2023-04-24T03:09:41;24.95;;;15.35;;
51560;SDS011;37654;51.262;17.058;2023-04-24T03:12:06;28.73;;;15.77;;
51560;SDS011;37654;51.262;17.058;2023-04-24T03:14:32;25.02;;;15.73;;
51560;SDS011;37654;51.262;17.058;2023-04-24T03:16:58;24.52;;;15.57;;
51560;SDS011;37654;51.262;17.058;2023-04-24T03:19:24;26.73;;;16.67;;
51560;SDS011;37654;51.262;17.058;2023-04-24T03:21:49;27.00;;;16.90;;
51560;SDS011;37654;51.262;17.058;2023-04-24T03:24:15;25.23;;;16.88;;
51560;SDS011;37654;51.262;17.058;2023-04-24T03:26:40;24.85;;;15.75;;
51560;SDS011;37654;51.262;17.058;2023-04-24T03:29:06;28.13;;;14.88;;
51560;SDS011;37654;51.262;17.058;2023-04-24T03:31:31;23.17;;;15.75;;
51560;SDS011;37654;51.262;17.058;2023-04-24T03:33:57;25.25;;;14.00;;
51560;SDS011;37654;51.262;17.058;2023-04-24T03:36:22;22.75;;;14.00;;
51560;SDS011;37654;51.262;17.058;2023-04-24T03:38:47;23.25;;;14.77;;
51560;SDS011;37654;51.262;17.058;2023-04-24T03:41:13;20.15;;;14.43;;
51560;SDS011;37654;51.262;17.058;2023-04-24T03:43:38;25.75;;;15.27;;
51560;SDS011;37654;51.262;17.058;2023-04-24T03:46:04;23.42;;;14.73;;
51560;SDS011;37654;51.262;17.058;2023-04-24T03:48:30;25.25;;;15.40;;
51560;SDS011;37654;51.262;17.058;2023-04-24T03:50:55;24.20;;;15.10;;
51560;SDS011;37654;51.262;17.058;2023-04-24T03:53:20;22.73;;;13.85;;
51560;SDS011;37654;51.262;17.058;2023-04-24T03:55:46;25.05;;;15.20;;
51560;SDS011;37654;51.262;17.058;2023-04-24T03:58:12;20.65;;;14.00;;
51560;SDS011;37654;51.262;17.058;2023-04-24T04:00:39;23.67;;;14.70;;
51560;SDS011;37654;51.262;17.058;2023-04-24T04:03:05;24.40;;;14.02;;
51560;SDS011;37654;51.262;17.058;2023-04-24T04:05:31;25.13;;;14.45;;
51560;SDS011;37654;51.262;17.058;2023-04-24T04:07:56;21.05;;;13.98;;
51560;SDS011;37654;51.262;17.058;2023-04-24T04:10:21;25.90;;;15.20;;
51560;SDS011;37654;51.262;17.058;2023-04-24T04:12:47;22.08;;;15.27;;
51560;SDS011;37654;51.262;17.058;2023-04-24T04:15:12;23.83;;;14.65;;
51560;SDS011;37654;51.262;17.058;2023-04-24T04:17:38;26.17;;;15.93;;
51560;SDS011;37654;51.262;17.058;2023-04-24T04:20:03;26.10;;;16.60;;
51560;SDS011;37654;51.262;17.058;2023-04-24T04:22:35;26.63;;;15.65;;
51560;SDS011;37654;51.262;17.058;2023-04-24T04:25:01;27.83;;;16.17;;
51560;SDS011;37654;51.262;17.058;2023-04-24T04:27:26;25.00;;;15.73;;
51560;SDS011;37654;51.262;17.058;2023-04-24T04:29:53;29.02;;;15.27;;
51560;SDS011;37654;51.262;17.058;2023-04-24T04:32:18;24.67;;;15.95;;
51560;SDS011;37654;51.262;17.058;2023-04-24T04:34:44;29.60;;;16.90;;
51560;SDS011;37654;51.262;17.058;2023-04-24T04:37:10;25.90;;;16.58;;
51560;SDS011;37654;51.262;17.058;2023-04-24T04:39:37;28.33;;;15.93;;
51560;SDS011;37654;51.262;17.058;2023-04-24T04:42:03;25.63;;;16.77;;
51560;SDS011;37654;51.262;17.058;2023-04-24T04:44:28;27.63;;;15.70;;
51560;SDS011;37654;51.262;17.058;2023-04-24T04:46:55;27.95;;;15.05;;
51560;SDS011;37654;51.262;17.058;2023-04-24T04:49:21;22.70;;;15.13;;
51560;SDS011;37654;51.262;17.058;2023-04-24T04:51:48;23.52;;;14.90;;
51560;SDS011;37654;51.262;17.058;2023-04-24T04:54:15;24.85;;;15.20;;
51560;SDS011;37654;51.262;17.058;2023-04-24T04:56:41;25.40;;;13.55;;
51560;SDS011;37654;51.262;17.058;2023-04-24T04:59:06;24.52;;;13.35;;
51560;SDS011;37654;51.262;17.058;2023-04-24T05:01:32;21.90;;;12.68;;
51560;SDS011;37654;51.262;17.058;2023-04-24T05:03:57;26.48;;;13.77;;
51560;SDS011;37654;51.262;17.058;2023-04-24T05:06:22;23.15;;;13.70;;
51560;SDS011;37654;51.262;17.058;2023-04-24T05:08:48;18.80;;;11.68;;
51560;SDS011;37654;51.262;17.058;2023-04-24T05:11:13;23.10;;;13.65;;
51560;SDS011;37654;51.262;17.058;2023-04-24T05:13:39;19.95;;;14.07;;
51560;SDS011;37654;51.262;17.058;2023-04-24T05:16:05;18.77;;;13.10;;
51560;SDS011;37654;51.262;17.058;2023-04-24T05:18:31;23.17;;;14.05;;
51560;SDS011;37654;51.262;17.058;2023-04-24T05:20:56;18.52;;;12.77;;
51560;SDS011;37654;51.262;17.058;2023-04-24T05:23:22;21.85;;;13.07;;
51560;SDS011;37654;51.262;17.058;2023-04-24T05:25:47;19.58;;;13.88;;
51560;SDS011;37654;51.262;17.058;2023-04-24T05:28:13;23.35;;;13.55;;
51560;SDS011;37654;51.262;17.058;2023-04-24T05:30:38;18.85;;;13.57;;
51560;SDS011;37654;51.262;17.058;2023-04-24T05:33:04;19.13;;;13.38;;
51560;SDS011;37654;51.262;17.058;2023-04-24T05:35:29;19.30;;;13.35;;
51560;SDS011;37654;51.262;17.058;2023-04-24T05:37:54;19.17;;;13.60;;
51560;SDS011;37654;51.262;17.058;2023-04-24T05:40:20;21.20;;;12.70;;
51560;SDS011;37654;51.262;17.058;2023-04-24T05:42:45;19.48;;;11.13;;
51560;SDS011;37654;51.262;17.058;2023-04-24T05:45:11;19.95;;;12.68;;
51560;SDS011;37654;51.262;17.058;2023-04-24T05:47:41;19.30;;;13.80;;
51560;SDS011;37654;51.262;17.058;2023-04-24T05:50:07;19.35;;;13.00;;
51560;SDS011;37654;51.262;17.058;2023-04-24T05:52:32;16.92;;;12.45;;
51560;SDS011;37654;51.262;17.058;2023-04-24T05:54:58;17.73;;;12.05;;
51560;SDS011;37654;51.262;17.058;2023-04-24T05:57:23;19.73;;;12.43;;
51560;SDS011;37654;51.262;17.058;2023-04-24T05:59:49;19.58;;;12.05;;
51560;SDS011;37654;51.262;17.058;2023-04-24T06:02:15;17.08;;;11.95;;
51560;SDS011;37654;51.262;17.058;2023-04-24T06:04:40;22.10;;;12.82;;
51560;SDS011;37654;51.262;17.058;2023-04-24T06:07:06;19.05;;;12.15;;
51560;SDS011;37654;51.262;17.058;2023-04-24T06:09:32;20.33;;;12.70;;
51560;SDS011;37654;51.262;17.058;2023-04-24T06:11:57;17.77;;;11.75;;
51560;SDS011;37654;51.262;17.058;2023-04-24T06:14:24;17.73;;;11.23;;
51560;SDS011;37654;51.262;17.058;2023-04-24T06:16:50;18.38;;;10.35;;
51560;SDS011;37654;51.262;17.058;2023-04-24T06:19:16;19.65;;;10.73;;
51560;SDS011;37654;51.262;17.058;2023-04-24T06:21:41;19.83;;;11.10;;
51560;SDS011;37654;51.262;17.058;2023-04-24T06:24:06;20.13;;;10.10;;
51560;SDS011;37654;51.262;17.058;2023-04-24T06:26:32;17.92;;;10.18;;
51560;SDS011;37654;51.262;17.058;2023-04-24T06:28:57;12.50;;;8.65;;
51560;SDS011;37654;51.262;17.058;2023-04-24T06:31:24;12.10;;;8.30;;
51560;SDS011;37654;51.262;17.058;2023-04-24T06:33:49;10.60;;;8.00;;
51560;SDS011;37654;51.262;17.058;2023-04-24T06:36:15;16.50;;;8.35;;
51560;SDS011;37654;51.262;17.058;2023-04-24T06:38:41;15.20;;;8.95;;
51560;SDS011;37654;51.262;17.058;2023-04-24T06:41:06;14.98;;;8.10;;
51560;SDS011;37654;51.262;17.058;2023-04-24T06:43:32;15.18;;;8.27;;
51560;SDS011;37654;51.262;17.058;2023-04-24T06:45:58;12.57;;;8.75;;
51560;SDS011;37654;51.262;17.058;2023-04-24T06:48:24;14.93;;;8.27;;
51560;SDS011;37654;51.262;17.058;2023-04-24T06:50:50;13.88;;;9.20;;
51560;SDS011;37654;51.262;17.058;2023-04-24T06:53:16;14.95;;;8.65;;
51560;SDS011;37654;51.262;17.058;2023-04-24T06:55:42;16.48;;;8.30;;
51560;SDS011;37654;51.262;17.058;2023-04-24T06:58:09;16.98;;;9.25;;
51560;SDS011;37654;51.262;17.058;2023-04-24T07:00:36;15.23;;;7.88;;
51560;SDS011;37654;51.262;17.058;2023-04-24T07:03:01;11.95;;;7.88;;
51560;SDS011;37654;51.262;17.058;2023-04-24T07:05:27;13.35;;;8.43;;
51560;SDS011;37654;51.262;17.058;2023-04-24T07:07:53;12.73;;;8.05;;
51560;SDS011;37654;51.262;17.058;2023-04-24T07:10:18;10.82;;;7.95;;
51560;SDS011;37654;51.262;17.058;2023-04-24T07:12:45;12.02;;;7.88;;
51560;SDS011;37654;51.262;17.058;2023-04-24T07:15:11;11.05;;;7.40;;
51560;SDS011;37654;51.262;17.058;2023-04-24T07:17:36;19.85;;;8.10;;
51560;SDS011;37654;51.262;17.058;2023-04-24T07:20:03;11.05;;;6.82;;
51560;SDS011;37654;51.262;17.058;2023-04-24T07:22:30;13.43;;;6.15;;
51560;SDS011;37654;51.262;17.058;2023-04-24T07:24:55;10.60;;;7.35;;
51560;SDS011;37654;51.262;17.058;2023-04-24T07:27:21;12.00;;;6.90;;
51560;SDS011;37654;51.262;17.058;2023-04-24T07:29:46;15.50;;;7.20;;
51560;SDS011;37654;51.262;17.058;2023-04-24T07:32:12;11.32;;;6.45;;
51560;SDS011;37654;51.262;17.058;2023-04-24T07:34:37;10.52;;;6.05;;
51560;SDS011;37654;51.262;17.058;2023-04-24T07:37:03;13.27;;;6.70;;
51560;SDS011;37654;51.262;17.058;2023-04-24T07:39:28;9.77;;;6.05;;
51560;SDS011;37654;51.262;17.058;2023-04-24T07:41:54;15.73;;;6.45;;
51560;SDS011;37654;51.262;17.058;2023-04-24T07:44:19;7.88;;;5.63;;
51560;SDS011;37654;51.262;17.058;2023-04-24T07:46:45;11.05;;;6.25;;
51560;SDS011;37654;51.262;17.058;2023-04-24T07:49:10;10.55;;;5.55;;
51560;SDS011;37654;51.262;17.058;2023-04-24T07:51:36;7.35;;;4.72;;
51560;SDS011;37654;51.262;17.058;2023-04-24T07:54:03;8.32;;;5.57;;
51560;SDS011;37654;51.262;17.058;2023-04-24T07:56:30;7.22;;;4.68;;
51560;SDS011;37654;51.262;17.058;2023-04-24T07:58:56;7.22;;;4.80;;
51560;SDS011;37654;51.262;17.058;2023-04-24T08:01:21;7.05;;;4.28;;
51560;SDS011;37654;51.262;17.058;2023-04-24T08:03:46;4.80;;;3.50;;
51560;SDS011;37654;51.262;17.058;2023-04-24T08:06:12;4.15;;;3.70;;
51560;SDS011;37654;51.262;17.058;2023-04-24T08:08:37;5.75;;;3.50;;
51560;SDS011;37654;51.262;17.058;2023-04-24T08:11:03;6.60;;;3.85;;
51560;SDS011;37654;51.262;17.058;2023-04-24T08:13:28;3.72;;;2.80;;
51560;SDS011;37654;51.262;17.058;2023-04-24T08:15:54;3.97;;;3.13;;
51560;SDS011;37654;51.262;17.058;2023-04-24T08:18:19;4.10;;;3.20;;
51560;SDS011;37654;51.262;17.058;2023-04-24T08:20:45;7.95;;;3.45;;
51560;SDS011;37654;51.262;17.058;2023-04-24T08:23:10;7.00;;;3.40;;
51560;SDS011;37654;51.262;17.058;2023-04-24T08:25:35;6.05;;;3.58;;
51560;SDS011;37654;51.262;17.058;2023-04-24T08:28:05;4.10;;;3.28;;
51560;SDS011;37654;51.262;17.058;2023-04-24T08:30:31;6.07;;;3.75;;
51560;SDS011;37654;51.262;17.058;2023-04-24T08:32:57;4.18;;;2.70;;
51560;SDS011;37654;51.262;17.058;2023-04-24T08:35:22;3.95;;;2.30;;
51560;SDS011;37654;51.262;17.058;2023-04-24T08:37:48;7.95;;;2.50;;
51560;SDS011;37654;51.262;17.058;2023-04-24T08:40:14;5.68;;;2.53;;
51560;SDS011;37654;51.262;17.058;2023-04-24T08:42:41;3.97;;;2.35;;
51560;SDS011;37654;51.262;17.058;2023-04-24T08:45:09;2.35;;;2.10;;
51560;SDS011;37654;51.262;17.058;2023-04-24T08:47:38;4.22;;;3.45;;
51560;SDS011;37654;51.262;17.058;2023-04-24T08:50:05;5.10;;;2.85;;
51560;SDS011;37654;51.262;17.058;2023-04-24T08:52:32;7.10;;;3.35;;
51560;SDS011;37654;51.262;17.058;2023-04-24T08:54:59;2.40;;;2.20;;
51560;SDS011;37654;51.262;17.058;2023-04-24T08:57:26;3.25;;;2.85;;
51560;SDS011;37654;51.262;17.058;2023-04-24T08:59:52;3.92;;;2.88;;
51560;SDS011;37654;51.262;17.058;2023-04-24T09:02:18;5.97;;;3.20;;
51560;SDS011;37654;51.262;17.058;2023-04-24T09:04:44;9.32;;;3.75;;
51560;SDS011;37654;51.262;17.058;2023-04-24T09:07:12;7.70;;;3.42;;
51560;SDS011;37654;51.262;17.058;2023-04-24T09:09:39;9.18;;;3.40;;
51560;SDS011;37654;51.262;17.058;2023-04-24T09:12:06;5.43;;;2.95;;
51560;SDS011;37654;51.262;17.058;2023-04-24T09:14:34;3.80;;;3.15;;
51560;SDS011;37654;51.262;17.058;2023-04-24T09:17:01;5.40;;;2.80;;
51560;SDS011;37654;51.262;17.058;2023-04-24T09:19:27;6.53;;;3.33;;
51560;SDS011;37654;51.262;17.058;2023-04-24T09:21:52;6.18;;;2.65;;
51560;SDS011;37654;51.262;17.058;2023-04-24T09:24:19;4.72;;;2.90;;
51560;SDS011;37654;51.262;17.058;2023-04-24T09:26:47;3.80;;;3.08;;
51560;SDS011;37654;51.262;17.058;2023-04-24T09:29:15;5.00;;;2.78;;
51560;SDS011;37654;51.262;17.058;2023-04-24T09:31:42;4.22;;;2.85;;
51560;SDS011;37654;51.262;17.058;2023-04-24T09:34:07;3.55;;;2.55;;
51560;SDS011;37654;51.262;17.058;2023-04-24T09:36:36;2.78;;;2.50;;
51560;SDS011;37654;51.262;17.058;2023-04-24T09:39:07;3.47;;;2.78;;
51560;SDS011;37654;51.262;17.058;2023-04-24T09:41:47;3.88;;;3.10;;
51560;SDS011;37654;51.262;17.058;2023-04-24T09:44:18;6.00;;;3.13;;
51560;SDS011;37654;51.262;17.058;2023-04-24T09:46:51;4.55;;;3.22;;
51560;SDS011;37654;51.262;17.058;2023-04-24T09:49:28;3.70;;;2.72;;
51560;SDS011;37654;51.262;17.058;2023-04-24T09:52:05;2.80;;;2.37;;
51560;SDS011;37654;51.262;17.058;2023-04-24T09:54:32;4.32;;;3.20;;
51560;SDS011;37654;51.262;17.058;2023-04-24T09:56:58;3.72;;;2.70;;
51560;SDS011;37654;51.262;17.058;2023-04-24T09:59:25;5.32;;;2.45;;
51560;SDS011;37654;51.262;17.058;2023-04-24T10:01:50;5.72;;;3.13;;
51560;SDS011;37654;51.262;17.058;2023-04-24T10:04:20;3.83;;;3.08;;
51560;SDS011;37654;51.262;17.058;2023-04-24T10:06:49;5.28;;;3.15;;
51560;SDS011;37654;51.262;17.058;2023-04-24T10:09:15;3.65;;;2.95;;
51560;SDS011;37654;51.262;17.058;2023-04-24T10:11:42;4.43;;;3.00;;
51560;SDS011;37654;51.262;17.058;2023-04-24T10:14:20;5.78;;;3.40;;
51560;SDS011;37654;51.262;17.058;2023-04-24T10:16:47;3.35;;;2.90;;
51560;SDS011;37654;51.262;17.058;2023-04-24T10:19:14;4.53;;;2.53;;
51560;SDS011;37654;51.262;17.058;2023-04-24T10:21:41;3.20;;;2.80;;
51560;SDS011;37654;51.262;17.058;2023-04-24T10:24:11;3.83;;;2.92;;
51560;SDS011;37654;51.262;17.058;2023-04-24T10:26:41;3.22;;;2.92;;
51560;SDS011;37654;51.262;17.058;2023-04-24T10:29:07;6.38;;;3.78;;
51560;SDS011;37654;51.262;17.058;2023-04-24T10:31:35;7.00;;;3.42;;
51560;SDS011;37654;51.262;17.058;2023-04-24T10:34:02;5.78;;;3.78;;
51560;SDS011;37654;51.262;17.058;2023-04-24T10:36:29;5.68;;;3.53;;
51560;SDS011;37654;51.262;17.058;2023-04-24T10:38:57;5.50;;;3.95;;
51560;SDS011;37654;51.262;17.058;2023-04-24T10:41:25;7.75;;;4.13;;
51560;SDS011;37654;51.262;17.058;2023-04-24T10:46:31;10.10;;;4.38;;
51560;SDS011;37654;51.262;17.058;2023-04-24T10:48:57;5.18;;;3.60;;
51560;SDS011;37654;51.262;17.058;2023-04-24T10:51:23;4.88;;;3.58;;
51560;SDS011;37654;51.262;17.058;2023-04-24T10:59:45;5.90;;;4.20;;
51560;SDS011;37654;51.262;17.058;2023-04-24T11:02:14;5.78;;;3.50;;
51560;SDS011;37654;51.262;17.058;2023-04-24T11:04:43;5.15;;;3.65;;
51560;SDS011;37654;51.262;17.058;2023-04-24T11:07:10;6.22;;;3.25;;
51560;SDS011;37654;51.262;17.058;2023-04-24T11:09:36;4.28;;;3.28;;
51560;SDS011;37654;51.262;17.058;2023-04-24T11:17:30;5.45;;;3.28;;
51560;SDS011;37654;51.262;17.058;2023-04-24T11:22:33;3.97;;;2.58;;
51560;SDS011;37654;51.262;17.058;2023-04-24T11:25:02;4.70;;;3.45;;
51560;SDS011;37654;51.262;17.058;2023-04-24T11:27:37;4.85;;;2.85;;
51560;SDS011;37654;51.262;17.058;2023-04-24T11:30:05;5.40;;;3.55;;
51560;SDS011;37654;51.262;17.058;2023-04-24T11:35:02;8.77;;;3.60;;
51560;SDS011;37654;51.262;17.058;2023-04-24T11:37:37;4.13;;;3.00;;
51560;SDS011;37654;51.262;17.058;2023-04-24T11:40:04;5.35;;;3.22;;
51560;SDS011;37654;51.262;17.058;2023-04-24T11:42:34;4.28;;;3.10;;
51560;SDS011;37654;51.262;17.058;2023-04-24T11:45:13;6.20;;;3.35;;
51560;SDS011;37654;51.262;17.058;2023-04-24T11:47:40;4.75;;;3.10;;
51560;SDS011;37654;51.262;17.058;2023-04-24T11:50:07;7.35;;;3.58;;
51560;SDS011;37654;51.262;17.058;2023-04-24T11:52:38;5.30;;;3.55;;
51560;SDS011;37654;51.262;17.058;2023-04-24T11:55:24;6.78;;;3.20;;
51560;SDS011;37654;51.262;17.058;2023-04-24T11:57:55;4.25;;;3.05;;
51560;SDS011;37654;51.262;17.058;2023-04-24T12:00:26;4.93;;;3.17;;
51560;SDS011;37654;51.262;17.058;2023-04-24T12:05:34;4.13;;;3.42;;
51560;SDS011;37654;51.262;17.058;2023-04-24T12:08:00;4.68;;;3.08;;
51560;SDS011;37654;51.262;17.058;2023-04-24T12:10:26;4.28;;;2.95;;
51560;SDS011;37654;51.262;17.058;2023-04-24T12:12:53;6.53;;;3.53;;
51560;SDS011;37654;51.262;17.058;2023-04-24T12:15:20;6.78;;;2.88;;
51560;SDS011;37654;51.262;17.058;2023-04-24T12:17:46;3.05;;;2.50;;
51560;SDS011;37654;51.262;17.058;2023-04-24T12:20:12;4.65;;;3.20;;
51560;SDS011;37654;51.262;17.058;2023-04-24T12:25:20;5.05;;;3.70;;
51560;SDS011;37654;51.262;17.058;2023-04-24T12:27:54;5.25;;;4.07;;
51560;SDS011;37654;51.262;17.058;2023-04-24T12:30:20;7.97;;;5.15;;
51560;SDS011;37654;51.262;17.058;2023-04-24T12:32:51;6.00;;;4.22;;
51560;SDS011;37654;51.262;17.058;2023-04-24T12:35:20;6.13;;;4.32;;
51560;SDS011;37654;51.262;17.058;2023-04-24T12:37:49;5.70;;;3.80;;
51560;SDS011;37654;51.262;17.058;2023-04-24T12:40:17;4.43;;;3.33;;
51560;SDS011;37654;51.262;17.058;2023-04-24T12:42:46;6.45;;;4.70;;
51560;SDS011;37654;51.262;17.058;2023-04-24T12:45:15;7.68;;;5.45;;
51560;SDS011;37654;51.262;17.058;2023-04-24T12:47:41;9.70;;;5.75;;
51560;SDS011;37654;51.262;17.058;2023-04-24T12:50:08;13.00;;;7.43;;
51560;SDS011;37654;51.262;17.058;2023-04-24T12:52:35;10.10;;;7.28;;
51560;SDS011;37654;51.262;17.058;2023-04-24T12:55:01;14.10;;;8.65;;
51560;SDS011;37654;51.262;17.058;2023-04-24T12:57:28;10.88;;;8.30;;
51560;SDS011;37654;51.262;17.058;2023-04-24T12:59:56;14.68;;;8.80;;
51560;SDS011;37654;51.262;17.058;2023-04-24T13:02:22;10.52;;;6.80;;
51560;SDS011;37654;51.262;17.058;2023-04-24T13:04:48;9.85;;;6.72;;
51560;SDS011;37654;51.262;17.058;2023-04-24T13:07:14;12.60;;;6.75;;
51560;SDS011;37654;51.262;17.058;2023-04-24T13:09:40;7.25;;;5.05;;
51560;SDS011;37654;51.262;17.058;2023-04-24T13:12:07;10.18;;;5.55;;
51560;SDS011;37654;51.262;17.058;2023-04-24T13:14:33;8.20;;;5.05;;
51560;SDS011;37654;51.262;17.058;2023-04-24T13:16:59;7.93;;;5.55;;
51560;SDS011;37654;51.262;17.058;2023-04-24T13:19:25;5.60;;;4.00;;
51560;SDS011;37654;51.262;17.058;2023-04-24T13:21:51;8.23;;;4.22;;
51560;SDS011;37654;51.262;17.058;2023-04-24T13:24:17;7.20;;;2.80;;
51560;SDS011;37654;51.262;17.058;2023-04-24T13:26:42;6.95;;;3.13;;
51560;SDS011;37654;51.262;17.058;2023-04-24T13:29:08;4.78;;;1.73;;
51560;SDS011;37654;51.262;17.058;2023-04-24T13:31:34;8.05;;;1.90;;
51560;SDS011;37654;51.262;17.058;2023-04-24T13:34:00;2.15;;;1.60;;
51560;SDS011;37654;51.262;17.058;2023-04-24T13:36:26;3.50;;;1.58;;
51560;SDS011;37654;51.262;17.058;2023-04-24T13:38:51;2.80;;;1.58;;
51560;SDS011;37654;51.262;17.058;2023-04-24T13:41:17;4.82;;;1.85;;
51560;SDS011;37654;51.262;17.058;2023-04-24T13:43:42;4.22;;;1.98;;
51560;SDS011;37654;51.262;17.058;2023-04-24T13:46:08;4.45;;;1.70;;
51560;SDS011;37654;51.262;17.058;2023-04-24T13:48:34;3.38;;;1.58;;
51560;SDS011;37654;51.262;17.058;2023-04-24T13:51:00;2.58;;;1.58;;
51560;SDS011;37654;51.262;17.058;2023-04-24T13:53:26;1.88;;;1.25;;
51560;SDS011;37654;51.262;17.058;2023-04-24T13:55:52;3.00;;;1.58;;
51560;SDS011;37654;51.262;17.058;2023-04-24T13:58:17;4.20;;;1.10;;
51560;SDS011;37654;51.262;17.058;2023-04-24T14:00:43;1.75;;;1.00;;
51560;SDS011;37654;51.262;17.058;2023-04-24T14:03:08;4.20;;;1.67;;
51560;SDS011;37654;51.262;17.058;2023-04-24T14:05:33;3.22;;;1.17;;
51560;SDS011;37654;51.262;17.058;2023-04-24T14:07:59;2.67;;;1.63;;
51560;SDS011;37654;51.262;17.058;2023-04-24T14:10:25;4.35;;;1.40;;
51560;SDS011;37654;51.262;17.058;2023-04-24T14:12:52;4.53;;;1.63;;
51560;SDS011;37654;51.262;17.058;2023-04-24T14:15:18;3.08;;;1.80;;
51560;SDS011;37654;51.262;17.058;2023-04-24T14:17:43;3.13;;;1.02;;
51560;SDS011;37654;51.262;17.058;2023-04-24T14:20:09;2.97;;;1.20;;
51560;SDS011;37654;51.262;17.058;2023-04-24T14:22:35;3.15;;;1.20;;
51560;SDS011;37654;51.262;17.058;2023-04-24T14:25:01;5.15;;;1.00;;
51560;SDS011;37654;51.262;17.058;2023-04-24T14:27:26;3.03;;;1.10;;
51560;SDS011;37654;51.262;17.058;2023-04-24T14:29:52;2.88;;;1.23;;
51560;SDS011;37654;51.262;17.058;2023-04-24T14:32:17;3.00;;;1.70;;
51560;SDS011;37654;51.262;17.058;2023-04-24T14:34:43;5.38;;;1.38;;
51560;SDS011;37654;51.262;17.058;2023-04-24T14:37:08;3.78;;;1.50;;
51560;SDS011;37654;51.262;17.058;2023-04-24T14:39:33;4.20;;;1.17;;
51560;SDS011;37654;51.262;17.058;2023-04-24T14:41:59;5.60;;;1.15;;